createdAt,value
2023-01-09T00:03:48.860Z,9.10
2023-01-09T00:07:50.905Z,9.08
2023-01-09T00:11:54.921Z,8.98
2023-01-09T00:15:57.239Z,8.92
2023-01-09T00:19:59.341Z,8.86
2023-01-09T00:24:01.505Z,8.84
2023-01-09T00:28:03.886Z,8.85
2023-01-09T00:32:10.016Z,8.84
2023-01-09T00:36:12.411Z,8.81
2023-01-09T00:40:15.730Z,8.78
2023-01-09T00:44:22.333Z,8.75
2023-01-09T00:48:27.237Z,8.72
2023-01-09T00:52:32.741Z,8.71
2023-01-09T00:56:36.608Z,8.74
2023-01-09T01:00:38.775Z,8.76
2023-01-09T01:04:59.482Z,8.79
2023-01-09T01:09:01.609Z,8.80
2023-01-09T01:13:03.717Z,8.82
2023-01-09T01:17:06.804Z,9.18
2023-01-09T01:21:10.502Z,9.12
2023-01-09T01:25:14.283Z,9.07
2023-01-09T01:29:16.378Z,9.05
2023-01-09T01:33:18.388Z,9.06
2023-01-09T01:37:22.744Z,9.09
2023-01-09T01:41:30.640Z,9.12
2023-01-09T01:45:34.193Z,9.13
2023-01-09T01:49:36.245Z,9.18
2023-01-09T01:53:45.217Z,9.19
2023-01-09T01:57:50.631Z,9.13
2023-01-09T02:01:56.616Z,9.10
2023-01-09T02:05:58.800Z,9.02
2023-01-09T02:10:01.332Z,8.99
2023-01-09T02:14:03.563Z,8.92
2023-01-09T02:18:19.787Z,8.84
2023-01-09T02:22:35.795Z,8.81
2023-01-09T02:26:57.751Z,8.70
2023-01-09T02:31:18.413Z,8.63
2023-01-09T02:35:33.785Z,8.61
2023-01-09T02:39:47.063Z,8.62
2023-01-09T02:44:02.263Z,8.62
2023-01-09T02:48:04.501Z,8.59
2023-01-09T02:52:30.514Z,8.55
2023-01-09T02:56:45.603Z,8.55
2023-01-09T03:00:59.257Z,8.51
2023-01-09T03:05:18.452Z,8.45
2023-01-09T03:09:23.824Z,8.45
2023-01-09T03:13:33.801Z,8.45
2023-01-09T03:17:39.829Z,8.45
2023-01-09T03:21:43.659Z,8.46
2023-01-09T03:25:45.680Z,8.48
2023-01-09T03:29:47.694Z,8.52
2023-01-09T03:33:49.925Z,8.51
2023-01-09T03:37:52.073Z,8.51
2023-01-09T03:41:54.100Z,8.50
2023-01-09T03:45:56.439Z,8.47
2023-01-09T03:49:58.601Z,8.41
2023-01-09T03:54:00.636Z,8.38
2023-01-09T03:58:02.702Z,8.36
2023-01-09T04:02:04.824Z,8.34
2023-01-09T04:06:07.843Z,8.35
2023-01-09T04:10:10.654Z,8.39
2023-01-09T04:14:12.679Z,8.37
2023-01-09T04:18:15.823Z,8.33
2023-01-09T04:22:17.849Z,8.28
2023-01-09T04:26:19.953Z,8.23
2023-01-09T04:30:21.992Z,8.15
2023-01-09T04:34:25.576Z,8.07
2023-01-09T04:38:27.597Z,7.99
2023-01-09T04:42:29.621Z,7.90
2023-01-09T04:46:31.635Z,7.79
2023-01-09T04:50:33.654Z,7.69
2023-01-09T04:54:35.761Z,7.54
2023-01-09T04:58:37.747Z,7.41
2023-01-09T05:02:40.817Z,7.33
2023-01-09T05:06:42.818Z,7.29
2023-01-09T05:10:44.813Z,7.26
2023-01-09T05:14:46.841Z,7.23
2023-01-09T05:18:48.896Z,7.25
2023-01-09T05:22:50.922Z,7.67
2023-01-09T05:26:52.956Z,7.64
2023-01-09T05:30:54.941Z,7.55
2023-01-09T05:34:56.961Z,7.49
2023-01-09T05:38:59.087Z,7.48
2023-01-09T05:43:01.111Z,7.53
2023-01-09T05:47:03.154Z,7.63
2023-01-09T05:51:05.277Z,7.64
2023-01-09T05:55:08.102Z,7.57
2023-01-09T05:59:10.146Z,7.59
2023-01-09T06:03:12.336Z,7.56
2023-01-09T06:07:19.503Z,7.51
2023-01-09T06:11:22.414Z,7.47
2023-01-09T06:15:24.488Z,7.40
2023-01-09T06:19:26.501Z,7.31
2023-01-09T06:23:28.487Z,7.21
2023-01-09T06:27:30.518Z,7.08
2023-01-09T06:31:32.511Z,7.04
2023-01-09T06:35:34.565Z,7.10
2023-01-09T06:39:36.578Z,7.14
2023-01-09T06:43:39.006Z,7.20
2023-01-09T06:47:41.086Z,7.20
2023-01-09T06:51:43.078Z,7.21
2023-01-09T06:55:45.575Z,7.21
2023-01-09T06:59:47.568Z,7.30
2023-01-09T07:03:49.608Z,7.76
2023-01-09T07:07:51.647Z,8.19
2023-01-09T07:11:53.699Z,8.00
2023-01-09T07:15:55.832Z,7.84
2023-01-09T07:19:58.593Z,7.77
2023-01-09T07:24:00.592Z,7.69
2023-01-09T07:28:02.672Z,7.65
2023-01-09T07:32:05.162Z,7.60
2023-01-09T07:36:07.815Z,7.58
2023-01-09T07:40:10.386Z,7.53
2023-01-09T07:44:12.823Z,7.53
2023-01-09T07:48:14.864Z,7.54
2023-01-09T07:52:16.865Z,7.53
2023-01-09T07:56:19.144Z,7.53
2023-01-09T08:00:21.376Z,7.54
2023-01-09T08:04:23.618Z,7.54
2023-01-09T08:08:25.850Z,7.55
2023-01-09T08:12:27.975Z,7.60
2023-01-09T08:16:30.049Z,7.60
2023-01-09T08:20:32.074Z,7.62
2023-01-09T08:24:34.272Z,7.65
2023-01-09T08:28:36.273Z,7.66
2023-01-09T08:32:38.781Z,7.69
2023-01-09T08:36:40.812Z,7.72
2023-01-09T08:40:42.885Z,7.78
2023-01-09T08:45:03.629Z,7.81
2023-01-09T08:49:05.696Z,7.91
2023-01-09T08:53:07.765Z,8.07
2023-01-09T08:57:10.026Z,8.11
2023-01-09T09:01:12.083Z,8.14
2023-01-09T09:05:14.114Z,8.18
2023-01-09T09:09:16.150Z,8.26
2023-01-09T09:13:18.152Z,8.23
2023-01-09T09:17:20.148Z,8.31
2023-01-09T09:21:22.162Z,8.39
2023-01-09T09:25:24.357Z,8.43
2023-01-09T09:29:26.379Z,8.44
2023-01-09T09:33:30.243Z,8.48
2023-01-09T09:37:32.631Z,8.50
2023-01-09T09:42:18.249Z,8.56
2023-01-09T09:46:39.050Z,8.59
2023-01-09T09:51:18.845Z,8.63
2023-01-09T09:55:36.953Z,8.75
2023-01-09T09:59:41.772Z,8.83
2023-01-09T10:03:48.783Z,8.93
2023-01-09T10:07:51.407Z,9.09
2023-01-09T10:12:22.750Z,9.26
2023-01-09T10:16:40.379Z,9.50
2023-01-09T10:21:27.061Z,9.66
2023-01-09T10:25:51.214Z,9.72
2023-01-09T10:29:59.423Z,9.69
2023-01-09T10:34:19.399Z,9.61
2023-01-09T10:38:31.404Z,9.62
2023-01-09T10:42:47.673Z,9.45
2023-01-09T10:46:58.134Z,9.45
2023-01-09T10:51:00.518Z,9.52
2023-01-09T10:55:19.322Z,9.49
2023-01-09T10:59:22.096Z,9.40
2023-01-09T11:03:27.702Z,9.37
2023-01-09T11:07:34.625Z,9.37
2023-01-09T11:11:40.771Z,9.45
2023-01-09T11:15:42.890Z,9.53
2023-01-09T11:20:02.046Z,9.61
2023-01-09T11:24:19.345Z,9.82
2023-01-09T11:28:21.390Z,9.89
2023-01-09T11:32:24.743Z,9.97
2023-01-09T11:36:27.336Z,10.16
2023-01-09T11:40:35.634Z,10.29
2023-01-09T11:44:37.672Z,10.26
2023-01-09T11:48:53.529Z,10.30
2023-01-09T11:53:14.568Z,10.30
2023-01-09T11:57:17.366Z,10.27
2023-01-09T12:01:51.739Z,10.04
2023-01-09T12:06:25.555Z,9.89
2023-01-09T12:10:33.676Z,9.76
2023-01-09T12:14:56.505Z,9.74
2023-01-09T12:19:17.305Z,9.94
2023-01-09T12:24:00.344Z,10.01
2023-01-09T12:28:29.599Z,10.10
2023-01-09T12:32:50.072Z,10.04
2023-01-09T12:37:18.012Z,10.01
2023-01-09T12:41:32.283Z,9.91
2023-01-09T12:45:57.096Z,9.91
2023-01-09T12:50:16.417Z,9.87
2023-01-09T12:54:26.640Z,9.90
2023-01-09T12:58:46.900Z,9.94
2023-01-09T13:03:12.861Z,9.87
2023-01-09T13:07:23.469Z,9.89
2023-01-09T13:11:37.607Z,9.91
2023-01-09T13:15:43.793Z,9.90
2023-01-09T13:19:46.158Z,9.92
2023-01-09T13:24:01.033Z,10.13
2023-01-09T13:28:16.301Z,10.16
2023-01-09T13:32:30.536Z,10.19
2023-01-09T13:36:37.970Z,10.18
2023-01-09T13:40:40.052Z,10.21
2023-01-09T13:44:42.548Z,10.05
2023-01-09T13:48:44.699Z,9.92
2023-01-09T13:52:46.750Z,9.89
2023-01-09T13:57:17.003Z,9.80
2023-01-09T14:01:25.704Z,9.72
2023-01-09T14:05:27.669Z,9.61
2023-01-09T14:09:37.713Z,9.57
2023-01-09T14:13:44.098Z,9.52
2023-01-09T14:17:46.191Z,9.50
2023-01-09T14:21:53.289Z,9.44
2023-01-09T14:25:56.743Z,9.39
2023-01-09T14:30:17.417Z,9.37
2023-01-09T14:34:35.455Z,9.34
2023-01-09T14:38:49.618Z,9.42
2023-01-09T14:42:58.208Z,9.39
2023-01-09T14:47:12.754Z,9.30
2023-01-09T14:51:16.859Z,9.21
2023-01-09T14:55:50.555Z,9.15
2023-01-09T14:59:56.578Z,9.05
2023-01-09T15:04:02.105Z,9.05
2023-01-09T15:08:05.075Z,9.02
2023-01-09T15:12:12.999Z,8.99
2023-01-09T15:16:20.806Z,8.97
2023-01-09T15:20:30.251Z,8.89
2023-01-09T15:24:34.519Z,8.86
2023-01-09T15:28:42.228Z,8.87
2023-01-09T15:32:46.553Z,8.84
2023-01-09T15:36:52.482Z,8.80
2023-01-09T15:41:00.036Z,8.78
2023-01-09T15:45:02.417Z,8.72
2023-01-09T15:49:04.466Z,8.68
2023-01-09T15:53:13.578Z,8.65
2023-01-09T15:57:30.808Z,8.58
2023-01-09T16:01:34.357Z,8.55
2023-01-09T16:06:19.995Z,8.45
2023-01-09T16:10:31.859Z,8.39
2023-01-09T16:14:39.600Z,8.41
2023-01-09T16:18:54.055Z,8.42
2023-01-09T16:22:57.121Z,8.26
2023-01-09T16:27:12.493Z,7.64
2023-01-09T16:31:17.395Z,7.22
2023-01-09T16:35:26.035Z,7.15
2023-01-09T16:39:28.599Z,7.25
2023-01-09T16:43:30.543Z,7.37
2023-01-09T16:47:32.567Z,7.40
2023-01-09T16:51:34.549Z,7.40
2023-01-09T16:55:38.361Z,7.39
2023-01-09T16:59:40.348Z,7.37
2023-01-09T17:03:44.154Z,7.34
2023-01-09T17:07:46.262Z,7.35
2023-01-09T17:11:48.264Z,7.31
2023-01-09T17:15:52.717Z,7.29
2023-01-09T17:19:54.725Z,7.28
2023-01-09T17:24:16.437Z,7.21
2023-01-09T17:28:31.960Z,7.14
2023-01-09T17:32:33.914Z,7.11
2023-01-09T17:36:36.017Z,7.08
2023-01-09T17:40:38.587Z,7.07
2023-01-09T17:44:40.621Z,7.01
2023-01-09T17:48:42.769Z,6.98
2023-01-09T17:52:44.784Z,6.94
2023-01-09T17:56:50.841Z,6.92
2023-01-09T18:00:53.405Z,6.86
2023-01-09T18:04:55.446Z,6.81
2023-01-09T18:08:58.426Z,6.75
2023-01-09T18:13:00.536Z,6.76
2023-01-09T18:17:03.184Z,6.76
2023-01-09T18:21:05.582Z,6.72
2023-01-09T18:25:08.108Z,6.69
2023-01-09T18:29:11.389Z,6.68
2023-01-09T18:33:14.834Z,6.67
2023-01-09T18:37:16.923Z,6.72
2023-01-09T18:41:19.634Z,6.68
2023-01-09T18:45:21.647Z,6.71
2023-01-09T18:49:23.676Z,6.71
2023-01-09T18:53:25.645Z,6.61
2023-01-09T18:57:27.675Z,6.52
2023-01-09T19:01:30.490Z,6.41
2023-01-09T19:05:33.349Z,6.32
2023-01-09T19:09:35.751Z,6.25
2023-01-09T19:13:38.195Z,6.19
2023-01-09T19:17:40.796Z,6.15
2023-01-09T19:21:44.101Z,6.08
2023-01-09T19:25:49.063Z,6.03
2023-01-09T19:29:51.104Z,5.97
2023-01-09T19:33:53.341Z,5.92
2023-01-09T19:37:55.385Z,5.90
2023-01-09T19:41:57.433Z,5.88
2023-01-09T19:45:59.442Z,5.81
2023-01-09T19:50:04.625Z,5.76
2023-01-09T19:54:07.090Z,5.75
2023-01-09T19:58:09.154Z,5.74
2023-01-09T20:02:13.093Z,5.76
2023-01-09T20:06:19.003Z,5.77
2023-01-09T20:10:21.018Z,5.82
2023-01-09T20:14:23.230Z,5.88
2023-01-09T20:18:26.138Z,5.90
2023-01-09T20:22:28.164Z,5.85
2023-01-09T20:26:30.207Z,5.76
2023-01-09T20:30:32.183Z,5.73
2023-01-09T20:34:34.218Z,5.77
2023-01-09T20:38:37.559Z,5.77
2023-01-09T20:42:39.649Z,5.74
2023-01-09T20:46:47.394Z,5.71
2023-01-09T20:50:49.436Z,5.68
2023-01-09T20:54:51.438Z,5.65
2023-01-09T20:58:56.626Z,5.63
2023-01-09T21:02:59.495Z,5.96
2023-01-09T21:07:01.545Z,5.87
2023-01-09T21:11:04.989Z,5.76
2023-01-09T21:15:09.806Z,5.65
2023-01-09T21:19:11.855Z,5.64
2023-01-09T21:23:13.852Z,5.73
2023-01-09T21:27:16.285Z,6.01
2023-01-09T21:31:21.280Z,6.22
2023-01-09T21:35:23.364Z,6.15
2023-01-09T21:39:25.572Z,6.06
2023-01-09T21:43:48.288Z,5.99
2023-01-09T21:47:50.286Z,5.94
2023-01-09T21:51:54.296Z,5.96
2023-01-09T21:55:56.473Z,5.92
2023-01-09T21:59:58.476Z,5.85
2023-01-09T22:04:00.579Z,5.83
2023-01-09T22:08:02.627Z,5.86
2023-01-09T22:12:04.803Z,5.85
2023-01-09T22:16:08.752Z,5.88
2023-01-09T22:20:11.396Z,5.81
2023-01-09T22:24:15.489Z,5.77
2023-01-09T22:28:17.692Z,5.89
2023-01-09T22:32:19.689Z,5.95
2023-01-09T22:36:21.674Z,5.92
2023-01-09T22:40:24.437Z,5.99
2023-01-09T22:44:26.515Z,6.11
2023-01-09T22:48:31.716Z,6.21
2023-01-09T22:52:33.951Z,6.29
2023-01-09T22:56:36.227Z,6.32
2023-01-09T23:00:38.234Z,6.38
2023-01-09T23:04:40.245Z,6.52
2023-01-09T23:08:43.147Z,6.59
2023-01-09T23:12:48.349Z,6.59
2023-01-09T23:16:50.400Z,6.52
2023-01-09T23:21:01.017Z,6.42
2023-01-09T23:25:03.093Z,6.30
2023-01-09T23:29:07.224Z,6.15
2023-01-09T23:33:09.430Z,5.96
2023-01-09T23:37:11.739Z,5.85
2023-01-09T23:41:13.791Z,5.72
2023-01-09T23:45:15.802Z,5.68
2023-01-09T23:49:18.354Z,5.67
2023-01-09T23:53:22.387Z,5.60
2023-01-09T23:57:24.475Z,5.54
